Time;durP1;ratioP1;P1;durP2;ratioP2;P2;SDS_P1;SDS_P2;PMS_P1;PMS_P2;Temp;Humidity;BMP_temperature;BMP_pressure;BME280_temperature;BME280_humidity;BME280_pressure;Samples;Min_cycle;Max_cycle;Signal;HPM_P1;HPM_P2
2022/05/01 00:02:15;;;;;;;7.97;5.60;;;358.50;2329.60;;;;;;4973763;28;20031;-80
2022/05/01 00:04:41;;;;;;;6.82;4.72;;;358.50;2329.60;;;;;;4972847;28;20135;-79
2022/05/01 00:07:10;;;;;;;9.25;5.45;;;358.50;2329.60;;;;;;4956408;28;20034;-80
2022/05/01 00:09:37;;;;;;;7.75;5.55;;;358.50;2329.60;;;;;;4972175;28;20038;-80
2022/05/01 00:12:03;;;;;;;7.32;5.22;;;358.50;2329.60;;;;;;4956555;28;20023;-80
2022/05/01 00:14:29;;;;;;;8.30;4.55;;;358.80;2329.60;;;;;;4956245;28;20031;-80
2022/05/01 00:16:55;;;;;;;8.55;5.82;;;358.50;2329.60;;;;;;4956606;28;20057;-79
2022/05/01 00:19:20;;;;;;;7.63;5.78;;;333.70;2329.60;;;;;;4960465;28;20055;-80
2022/05/01 00:21:46;;;;;;;9.13;6.38;;;333.70;2329.60;;;;;;4960524;28;20037;-79
2022/05/01 00:24:12;;;;;;;8.43;5.55;;;358.40;2329.60;;;;;;4960299;28;20049;-79
2022/05/01 00:26:37;;;;;;;8.02;5.03;;;358.40;2329.60;;;;;;4960122;28;20081;-80
2022/05/01 00:29:07;;;;;;;10.90;6.35;;;358.40;2329.60;;;;;;4960036;28;20564;-80
2022/05/01 00:31:33;;;;;;;7.20;5.30;;;358.40;2329.60;;;;;;4960196;28;20038;-79
2022/05/01 00:36:42;;;;;;;8.15;5.65;;;358.40;2329.60;;;;;;4977641;28;20097;-80
2022/05/01 00:39:08;;;;;;;9.13;6.25;;;358.40;2329.60;;;;;;4977654;28;20035;-79
2022/05/01 00:41:43;;;;;;;7.47;5.25;;;333.70;2329.60;;;;;;4959137;28;20031;-79
2022/05/01 00:44:16;;;;;;;8.52;5.75;;;333.70;2329.60;;;;;;4977513;28;20106;-80
2022/05/01 00:46:49;;;;;;;7.47;5.78;;;333.50;2329.60;;;;;;4959966;28;20057;-80
2022/05/01 00:49:22;;;;;;;7.82;5.18;;;333.50;2329.60;;;;;;4977054;28;20100;-80
2022/05/01 00:51:50;;;;;;;7.55;5.75;;;333.40;2329.60;;;;;;4959898;28;20476;-80
2022/05/01 00:54:17;;;;;;;8.40;5.95;;;333.30;2329.60;;;;;;4959678;28;20042;-79
2022/05/01 00:56:50;;;;;;;7.82;6.03;;;333.30;2329.60;;;;;;4976866;28;20492;-80
2022/05/01 00:59:16;;;;;;;8.77;6.35;;;333.30;2329.60;;;;;;4959235;28;20051;-80
2022/05/01 01:01:43;;;;;;;8.68;6.57;;;333.30;2329.60;;;;;;4976937;28;20027;-80
2022/05/01 01:04:10;;;;;;;8.90;6.18;;;333.30;2329.60;;;;;;4959831;28;20066;-80
2022/05/01 01:06:39;;;;;;;10.18;6.93;;;333.30;2329.60;;;;;;4959323;28;20122;-79
2022/05/01 01:09:06;;;;;;;7.15;5.47;;;333.30;2329.60;;;;;;4959672;28;20117;-79
2022/05/01 01:11:32;;;;;;;9.40;6.40;;;333.20;2329.60;;;;;;4959442;28;20026;-79
2022/05/01 01:13:59;;;;;;;9.38;6.25;;;333.10;2329.60;;;;;;4959770;28;20077;-79
2022/05/01 01:16:25;;;;;;;10.98;6.57;;;333.10;2329.60;;;;;;4976684;28;20129;-80
2022/05/01 01:18:51;;;;;;;12.50;6.55;;;333.10;2329.60;;;;;;4959759;28;20492;-80
2022/05/01 01:21:18;;;;;;;10.98;7.63;;;333.20;2329.60;;;;;;4959393;28;20050;-79
2022/05/01 01:23:44;;;;;;;8.85;6.70;;;333.20;2329.60;;;;;;4959271;28;20027;-80
2022/05/01 01:26:13;;;;;;;7.07;5.43;;;333.20;2329.60;;;;;;4976482;28;20023;-80
2022/05/01 01:28:41;;;;;;;8.32;6.57;;;333.20;2329.60;;;;;;4958042;28;20456;-79
2022/05/01 01:33:58;;;;;;;8.00;5.95;;;333.20;2329.60;;;;;;4976835;28;20041;-80
2022/05/01 01:36:28;;;;;;;8.20;6.57;;;333.30;2329.60;;;;;;4958945;28;20069;-79
2022/05/01 01:38:54;;;;;;;9.40;6.95;;;333.30;2329.60;;;;;;4976679;28;20046;-79
2022/05/01 01:41:27;;;;;;;8.80;7.07;;;333.30;2329.60;;;;;;4958384;28;20121;-79
2022/05/01 01:43:53;;;;;;;9.75;6.32;;;333.20;2329.60;;;;;;4959121;28;20019;-80
2022/05/01 01:46:19;;;;;;;12.48;7.22;;;333.10;2329.60;;;;;;4958816;28;20053;-79
2022/05/01 01:48:46;;;;;;;9.20;6.70;;;333.10;2329.60;;;;;;4959026;28;20556;-80
2022/05/01 01:51:13;;;;;;;9.77;6.75;;;333.30;2329.60;;;;;;4958811;28;20023;-80
2022/05/01 01:53:39;;;;;;;11.90;7.68;;;333.00;2329.60;;;;;;4975964;28;20027;-79
2022/05/01 01:56:08;;;;;;;11.45;7.47;;;333.00;2329.60;;;;;;4976209;28;20470;-78
2022/05/01 01:58:33;;;;;;;15.20;7.25;;;333.00;2329.60;;;;;;4958339;28;20034;-79
2022/05/01 02:00:59;;;;;;;8.73;6.85;;;333.00;2329.60;;;;;;4976337;28;20094;-80
2022/05/01 02:03:26;;;;;;;9.55;7.03;;;332.90;2329.60;;;;;;4958220;28;20417;-80
2022/05/01 02:05:52;;;;;;;13.93;7.07;;;332.90;2329.60;;;;;;4959146;28;20084;-79
2022/05/01 02:08:18;;;;;;;9.93;7.22;;;332.90;2329.60;;;;;;4958513;28;20181;-79
2022/05/01 02:10:44;;;;;;;9.57;7.28;;;332.90;2329.60;;;;;;4958739;28;20089;-80
2022/05/01 02:13:10;;;;;;;9.45;6.85;;;333.00;2329.60;;;;;;4958550;28;20037;-80
2022/05/01 02:15:37;;;;;;;13.27;6.75;;;332.90;2329.60;;;;;;4958430;28;20031;-80
2022/05/01 02:18:04;;;;;;;14.23;7.72;;;332.90;2329.60;;;;;;4958574;28;20026;-80
2022/05/01 02:23:17;;;;;;;10.05;7.72;;;332.80;2329.60;;;;;;4976090;28;20034;-79
2022/05/01 02:25:43;;;;;;;13.48;7.22;;;332.80;2329.60;;;;;;4958266;28;20125;-80
2022/05/01 02:28:10;;;;;;;10.57;6.90;;;332.80;2329.60;;;;;;4975421;28;20078;-80
2022/05/01 02:30:37;;;;;;;11.20;6.70;;;332.80;2329.60;;;;;;4975400;28;20373;-80
2022/05/01 02:33:03;;;;;;;10.73;7.13;;;332.80;2329.60;;;;;;4975630;28;20089;-80
2022/05/01 02:35:29;;;;;;;9.75;7.13;;;332.80;2329.60;;;;;;4958464;28;20030;-78
2022/05/01 02:37:55;;;;;;;11.60;6.95;;;332.90;2329.60;;;;;;4957720;28;20031;-78
2022/05/01 02:40:20;;;;;;;10.38;7.10;;;332.90;2329.60;;;;;;4957503;28;20023;-78
2022/05/01 02:42:46;;;;;;;10.80;7.20;;;332.90;2329.60;;;;;;4957359;28;20037;-79
2022/05/01 02:45:13;;;;;;;10.88;7.60;;;332.90;2329.60;;;;;;4957716;28;20029;-78
2022/05/01 02:47:38;;;;;;;11.80;8.02;;;332.90;2329.60;;;;;;4957275;28;20030;-79
2022/05/01 02:50:04;;;;;;;9.35;7.40;;;332.90;2329.60;;;;;;4973650;28;20113;-78
2022/05/01 02:52:30;;;;;;;9.65;6.97;;;332.80;2329.60;;;;;;4957562;28;20027;-77
2022/05/01 02:54:56;;;;;;;9.90;6.55;;;308.10;2304.00;;;;;;4974104;28;20540;-78
2022/05/01 02:57:22;;;;;;;11.82;7.13;;;308.10;2304.00;;;;;;4973867;28;20084;-78
2022/05/01 02:59:47;;;;;;;9.93;7.03;;;308.10;2304.00;;;;;;4956772;28;20050;-78
2022/05/01 03:02:15;;;;;;;11.15;7.32;;;308.00;2304.00;;;;;;4957292;28;20030;-78
2022/05/01 03:04:40;;;;;;;12.23;6.80;;;308.00;2304.00;;;;;;4974338;28;20113;-78
2022/05/01 03:07:07;;;;;;;10.63;7.30;;;307.90;2304.00;;;;;;4957208;28;20109;-78
2022/05/01 03:09:34;;;;;;;10.48;7.05;;;307.90;2304.00;;;;;;4957081;28;20106;-78
2022/05/01 03:12:00;;;;;;;10.82;7.45;;;307.90;2304.00;;;;;;4974524;28;20019;-78
2022/05/01 03:14:26;;;;;;;11.68;6.80;;;307.90;2304.00;;;;;;4956844;28;20138;-78
2022/05/01 03:16:52;;;;;;;14.95;6.95;;;307.90;2304.00;;;;;;4957196;28;20497;-78
2022/05/01 03:22:11;;;;;;;11.60;7.78;;;307.90;2304.00;;;;;;4974279;28;20045;-78
2022/05/01 03:24:38;;;;;;;11.07;6.68;;;307.90;2304.00;;;;;;4974280;28;20027;-78
2022/05/01 03:27:05;;;;;;;9.82;7.03;;;307.80;2304.00;;;;;;4974089;28;20015;-78
2022/05/01 03:29:31;;;;;;;9.73;7.10;;;307.80;2304.00;;;;;;4956715;28;20062;-78
2022/05/01 03:31:58;;;;;;;11.25;7.68;;;332.90;2329.60;;;;;;4956641;28;20038;-79
2022/05/01 03:34:26;;;;;;;13.23;7.75;;;307.80;2304.00;;;;;;4956639;28;20082;-78
2022/05/01 03:36:53;;;;;;;10.13;7.63;;;307.80;2304.00;;;;;;4956600;28;20027;-78
2022/05/01 03:39:19;;;;;;;10.98;6.85;;;307.90;2304.00;;;;;;4956515;28;20019;-78
2022/05/01 03:41:45;;;;;;;10.02;7.25;;;307.80;2304.00;;;;;;4956876;28;20034;-78
2022/05/01 03:44:11;;;;;;;11.07;7.93;;;307.80;2304.00;;;;;;4956416;28;20027;-78
2022/05/01 03:46:38;;;;;;;11.93;7.60;;;307.80;2304.00;;;;;;4972881;28;20398;-78
2022/05/01 03:49:09;;;;;;;10.13;6.93;;;307.80;2304.00;;;;;;4973767;28;20433;-79
2022/05/01 03:51:35;;;;;;;9.48;7.28;;;307.70;2304.00;;;;;;4956545;28;20030;-78
2022/05/01 03:54:02;;;;;;;9.77;7.50;;;307.60;2304.00;;;;;;4972937;28;20122;-78
2022/05/01 03:56:31;;;;;;;10.15;7.38;;;307.60;2304.00;;;;;;4956430;28;20059;-79
2022/05/01 03:58:57;;;;;;;10.25;7.15;;;307.50;2304.00;;;;;;4955530;28;20081;-80
2022/05/01 04:01:25;;;;;;;10.10;7.15;;;307.50;2304.00;;;;;;4973750;28;20066;-79
2022/05/01 04:03:52;;;;;;;14.90;7.50;;;307.50;2304.00;;;;;;4973836;28;20019;-79
2022/05/01 04:06:17;;;;;;;10.93;7.75;;;307.60;2304.00;;;;;;4973489;28;20027;-79
2022/05/01 04:08:43;;;;;;;9.38;6.97;;;307.60;2304.00;;;;;;4973728;28;20500;-79
2022/05/01 04:11:10;;;;;;;13.23;7.38;;;307.60;2304.00;;;;;;4973492;28;20087;-79
2022/05/01 04:13:36;;;;;;;12.40;7.63;;;307.70;2304.00;;;;;;4956535;28;20474;-78
2022/05/01 04:16:02;;;;;;;11.55;6.78;;;307.70;2304.00;;;;;;4956368;28;20023;-78
2022/05/01 04:18:28;;;;;;;9.32;7.10;;;307.80;2304.00;;;;;;4945192;29;20059;-78
2022/05/01 04:20:54;;;;;;;9.40;7.15;;;307.90;2304.00;;;;;;4969156;28;20532;-79
2022/05/01 04:23:20;;;;;;;8.68;6.05;;;308.00;2304.00;;;;;;4956083;28;20041;-79
2022/05/01 04:25:47;;;;;;;8.95;6.47;;;308.00;2304.00;;;;;;4956452;28;20023;-78
2022/05/01 04:28:13;;;;;;;16.80;7.03;;;308.10;2304.00;;;;;;4955853;28;20035;-78
2022/05/01 04:30:39;;;;;;;9.13;6.63;;;308.10;2304.00;;;;;;4973644;28;20038;-78
2022/05/01 04:33:11;;;;;;;8.65;6.47;;;332.80;2329.60;;;;;;4956136;28;20026;-78
2022/05/01 04:35:40;;;;;;;9.68;6.97;;;332.90;2329.60;;;;;;4956281;28;20528;-78
2022/05/01 04:38:26;;;;;;;9.82;7.25;;;332.90;2329.60;;;;;;4956070;28;20027;-79
2022/05/01 04:40:54;;;;;;;13.53;7.30;;;332.90;2329.60;;;;;;4955690;28;20039;-78
2022/05/01 04:43:22;;;;;;;9.52;6.80;;;332.90;2329.60;;;;;;4956057;28;20290;-79
2022/05/01 04:45:54;;;;;;;9.40;7.05;;;333.00;2329.60;;;;;;4973088;28;20026;-78
2022/05/01 04:48:21;;;;;;;15.07;8.00;;;333.10;2329.60;;;;;;4956147;28;20062;-79
2022/05/01 04:50:49;;;;;;;12.88;7.50;;;333.30;2329.60;;;;;;4973100;28;20129;-79
2022/05/01 04:53:16;;;;;;;10.55;6.97;;;333.40;2329.60;;;;;;4973064;28;20473;-78
2022/05/01 04:55:44;;;;;;;8.88;7.30;;;333.50;2329.60;;;;;;4973209;28;20033;-79
2022/05/01 04:58:12;;;;;;;11.13;7.93;;;333.50;2329.60;;;;;;4955618;28;20035;-79
2022/05/01 05:00:38;;;;;;;9.30;7.05;;;333.60;2329.60;;;;;;4973485;28;20053;-80
2022/05/01 05:03:04;;;;;;;14.02;7.07;;;333.60;2329.60;;;;;;4955627;28;20122;-77
2022/05/01 05:05:31;;;;;;;9.30;7.57;;;358.60;2329.60;;;;;;4959281;28;20148;-77
2022/05/01 05:10:47;;;;;;;12.07;7.55;;;358.40;2329.60;;;;;;4976819;28;20392;-78
2022/05/01 05:13:14;;;;;;;12.30;7.97;;;358.50;2329.60;;;;;;4958466;28;20077;-77
2022/05/01 05:15:40;;;;;;;8.88;6.88;;;358.50;2329.60;;;;;;4958564;28;20041;-77
2022/05/01 05:18:06;;;;;;;10.93;7.28;;;358.60;2329.60;;;;;;4958911;28;20035;-78
2022/05/01 05:20:32;;;;;;;12.23;7.53;;;358.70;2329.60;;;;;;4976249;28;20023;-78
2022/05/01 05:22:58;;;;;;;13.50;9.07;;;358.80;2329.60;;;;;;4958343;28;20876;-78
2022/05/01 05:25:23;;;;;;;12.52;8.60;;;358.90;2329.60;;;;;;4976274;28;20524;-78
2022/05/01 05:27:49;;;;;;;12.43;7.80;;;359.00;2329.60;;;;;;4958616;28;20030;-78
2022/05/01 05:30:15;;;;;;;11.85;7.53;;;359.10;2329.60;;;;;;4958771;28;20542;-83
2022/05/01 05:32:41;;;;;;;11.32;7.97;;;359.10;2329.60;;;;;;4959023;28;20397;-81
2022/05/01 05:35:07;;;;;;;10.65;6.75;;;359.20;2329.60;;;;;;4959186;28;20113;-81
2022/05/01 05:37:32;;;;;;;9.02;5.97;;;359.20;2329.60;;;;;;4958974;28;20035;-81
2022/05/01 05:39:58;;;;;;;8.18;5.32;;;359.30;2329.60;;;;;;4959124;28;20027;-77
2022/05/01 05:42:25;;;;;;;9.02;5.63;;;384.00;2329.60;;;;;;4958799;28;20042;-81
2022/05/01 05:44:51;;;;;;;9.05;6.43;;;384.10;2329.60;;;;;;4959038;28;20035;-80
2022/05/01 05:47:17;;;;;;;8.65;5.82;;;384.00;2329.60;;;;;;4958908;28;20081;-81
2022/05/01 05:49:42;;;;;;;10.30;6.28;;;384.10;2329.60;;;;;;4958402;28;20046;-78
2022/05/01 05:52:08;;;;;;;8.75;5.80;;;384.10;2329.60;;;;;;4958547;28;20023;-77
2022/05/01 05:54:34;;;;;;;10.40;6.55;;;384.30;2329.60;;;;;;4957673;28;20038;-77
2022/05/01 05:57:00;;;;;;;9.43;5.95;;;384.40;2329.60;;;;;;4958317;28;20031;-77
2022/05/01 05:59:26;;;;;;;9.35;6.90;;;384.50;2329.60;;;;;;4958018;28;20047;-78
2022/05/01 06:01:51;;;;;;;10.82;7.90;;;384.70;2329.60;;;;;;4958358;28;20061;-78
2022/05/01 06:04:17;;;;;;;11.80;7.07;;;384.70;2329.60;;;;;;4958310;28;20492;-80
2022/05/01 06:06:43;;;;;;;13.43;6.38;;;384.80;2329.60;;;;;;4958105;28;20042;-79
2022/05/01 06:09:09;;;;;;;9.57;6.43;;;384.90;2329.60;;;;;;4975467;28;20039;-78
2022/05/01 06:11:35;;;;;;;8.88;6.85;;;409.60;2355.20;;;;;;4958676;28;20030;-77
2022/05/01 06:14:02;;;;;;;9.75;7.45;;;409.70;2355.20;;;;;;4975511;28;20031;-81
2022/05/01 06:16:28;;;;;;;10.50;7.22;;;409.90;2355.20;;;;;;4957611;28;20468;-79
2022/05/01 06:18:54;;;;;;;11.70;8.20;;;409.90;2355.20;;;;;;4975827;28;20085;-80
2022/05/01 06:21:19;;;;;;;10.52;7.03;;;410.00;2355.20;;;;;;4975414;28;20054;-80
2022/05/01 06:23:48;;;;;;;10.48;4.78;;;410.00;2355.20;;;;;;4958524;28;20038;-79
2022/05/01 06:26:14;;;;;;;9.82;5.38;;;410.00;2355.20;;;;;;4957961;28;20061;-77
2022/05/01 06:28:40;;;;;;;7.85;3.83;;;409.70;2355.20;;;;;;4957266;28;20047;-78
2022/05/01 06:31:06;;;;;;;7.95;4.43;;;410.40;2355.20;;;;;;4957930;28;20102;-78
2022/05/01 06:33:35;;;;;;;4.95;2.90;;;410.50;2355.20;;;;;;4975356;28;20031;-81
2022/05/01 06:36:01;;;;;;;11.40;3.22;;;435.20;2355.20;;;;;;4958232;28;20118;-79
2022/05/01 06:38:28;;;;;;;6.85;3.72;;;435.40;2355.20;;;;;;4975026;28;20031;-82
2022/05/01 06:40:54;;;;;;;7.22;3.95;;;435.50;2355.20;;;;;;4975209;28;20019;-79
2022/05/01 06:43:20;;;;;;;9.07;3.15;;;435.60;2355.20;;;;;;4975510;28;20500;-80
2022/05/01 06:45:47;;;;;;;6.75;3.35;;;435.70;2355.20;;;;;;4975052;28;20034;-80
2022/05/01 06:48:13;;;;;;;5.35;3.10;;;435.70;2355.20;;;;;;4957855;28;20047;-79
2022/05/01 06:50:39;;;;;;;8.20;2.88;;;435.50;2355.20;;;;;;4957656;28;20030;-79
2022/05/01 06:53:05;;;;;;;7.97;4.68;;;435.50;2355.20;;;;;;4974648;28;20038;-79
2022/05/01 06:55:32;;;;;;;15.88;3.60;;;435.50;2355.20;;;;;;4957546;28;20054;-78
2022/05/01 06:57:57;;;;;;;8.00;2.83;;;435.40;2355.20;;;;;;4974523;28;20470;-78
2022/05/01 07:00:24;;;;;;;3.28;2.45;;;435.30;2355.20;;;;;;4957511;28;20139;-79
2022/05/01 07:02:52;;;;;;;6.07;2.53;;;435.30;2355.20;;;;;;4957010;28;20105;-80
2022/05/01 07:05:18;;;;;;;3.83;2.58;;;435.30;2355.20;;;;;;4974683;28;20030;-81
2022/05/01 07:07:45;;;;;;;10.40;3.05;;;435.50;2355.20;;;;;;4956546;28;20046;-79
2022/05/01 07:10:12;;;;;;;9.43;2.80;;;435.50;2355.20;;;;;;4957182;28;20026;-79
2022/05/01 07:12:39;;;;;;;4.57;2.63;;;435.40;2355.20;;;;;;4957465;28;20027;-78
2022/05/01 07:15:06;;;;;;;3.10;1.98;;;435.50;2355.20;;;;;;4974360;28;20061;-79
2022/05/01 07:17:32;;;;;;;6.95;3.50;;;435.60;2355.20;;;;;;4945009;29;20529;-79
2022/05/01 07:19:58;;;;;;;5.13;3.10;;;435.60;2355.20;;;;;;4936971;29;20102;-77
2022/05/01 07:22:24;;;;;;;11.10;2.88;;;435.60;2355.20;;;;;;4937474;29;20058;-79
2022/05/01 07:24:50;;;;;;;6.57;2.50;;;435.70;2355.20;;;;;;4937233;29;20042;-76
2022/05/01 07:27:16;;;;;;;6.38;2.50;;;435.70;2355.20;;;;;;4954512;28;20023;-78
2022/05/01 07:29:42;;;;;;;4.85;2.55;;;435.70;2355.20;;;;;;4936769;29;20130;-77
2022/05/01 07:32:09;;;;;;;6.82;2.83;;;435.80;2355.20;;;;;;4938088;29;20035;-84
2022/05/01 07:34:35;;;;;;;5.07;2.83;;;435.80;2355.20;;;;;;4937130;29;20051;-79
2022/05/01 07:37:01;;;;;;;18.92;4.03;;;435.80;2355.20;;;;;;4954004;29;20027;-79
2022/05/01 07:39:26;;;;;;;4.72;2.75;;;435.80;2355.20;;;;;;4952639;29;20038;-79
2022/05/01 07:41:52;;;;;;;7.07;2.70;;;435.80;2355.20;;;;;;4954004;29;20034;-78
2022/05/01 07:44:18;;;;;;;3.53;2.33;;;435.80;2355.20;;;;;;4937270;29;20170;-81
2022/05/01 07:46:44;;;;;;;7.68;2.63;;;435.90;2355.20;;;;;;4936741;29;20110;-80
2022/05/01 07:49:11;;;;;;;3.92;2.08;;;436.00;2355.20;;;;;;4937351;29;20075;-83
2022/05/01 07:51:37;;;;;;;9.27;2.83;;;436.00;2355.20;;;;;;4937835;29;20027;-81
2022/05/01 07:54:04;;;;;;;4.35;2.63;;;436.10;2355.20;;;;;;4937694;29;20031;-81
2022/05/01 07:56:31;;;;;;;4.32;2.30;;;436.10;2355.20;;;;;;4937392;29;20027;-81
2022/05/01 07:58:57;;;;;;;5.22;2.17;;;436.10;2355.20;;;;;;4941273;28;20078;-79
2022/05/01 08:01:23;;;;;;;7.60;3.03;;;436.10;2227.20;;;;;;4956346;28;20061;-81
2022/05/01 08:06:34;;;;;;;4.60;2.33;;;460.80;2227.20;;;;;;4972870;28;20118;-81
2022/05/01 08:08:59;;;;;;;13.65;2.65;;;460.80;2304.00;;;;;;4956194;28;20050;-82
2022/05/01 08:11:25;;;;;;;7.47;3.15;;;460.80;2252.80;;;;;;4955491;28;20082;-80
2022/05/01 08:13:51;;;;;;;6.93;2.30;;;460.90;2304.00;;;;;;4955948;28;20031;-78
2022/05/01 08:16:17;;;;;;;5.35;2.30;;;461.00;2355.20;;;;;;4973258;28;20393;-79
2022/05/01 08:21:31;;;;;;;4.18;2.22;;;461.20;1945.60;;;;;;4970745;28;20033;-78
2022/05/01 08:23:57;;;;;;;8.63;2.92;;;461.40;1996.80;;;;;;4956073;28;20031;-79
2022/05/01 08:26:23;;;;;;;6.82;2.55;;;461.50;2022.40;;;;;;4956129;28;20031;-79
2022/05/01 08:28:52;;;;;;;11.15;2.40;;;461.60;2073.60;;;;;;4955981;28;20040;-78
2022/05/01 08:31:18;;;;;;;12.07;3.63;;;461.60;2073.60;;;;;;4972763;28;20023;-79
2022/05/01 08:33:43;;;;;;;12.07;3.72;;;461.60;2073.60;;;;;;4972875;28;20339;-80
2022/05/01 08:36:09;;;;;;;6.38;2.75;;;461.60;2022.40;;;;;;4955947;28;20035;-79
2022/05/01 08:38:37;;;;;;;11.50;5.45;;;461.70;2048.00;;;;;;4972160;28;20511;-76
2022/05/01 08:41:03;;;;;;;6.22;2.83;;;461.70;2150.40;;;;;;4976884;28;20031;-78
2022/05/01 08:43:31;;;;;;;11.85;3.00;;;461.70;2048.00;;;;;;4959547;28;20396;-78
2022/05/01 08:46:15;;;;;;;6.93;3.28;;;486.50;2022.40;;;;;;4976453;28;20496;-77
2022/05/01 08:48:45;;;;;;;22.92;5.57;;;461.70;1996.80;;;;;;4974170;28;20035;-78
2022/05/01 08:51:13;;;;;;;8.85;3.67;;;461.70;1971.20;;;;;;4976780;28;20109;-81
2022/05/01 08:53:42;;;;;;;8.60;4.00;;;461.70;1971.20;;;;;;4977065;28;20027;-80
2022/05/01 08:56:07;;;;;;;6.80;4.15;;;461.70;1945.60;;;;;;4959486;28;20054;-80
2022/05/01 08:58:35;;;;;;;12.55;5.07;;;486.40;1945.60;;;;;;4976862;28;20026;-80
2022/05/01 09:01:01;;;;;;;7.20;4.32;;;486.40;1945.60;;;;;;4976416;28;20134;-81
2022/05/01 09:03:27;;;;;;;4.63;2.65;;;486.40;2022.40;;;;;;4975695;28;20026;-81
2022/05/01 09:05:53;;;;;;;8.25;2.85;;;486.40;1920.00;;;;;;4975502;28;20026;-81
2022/05/01 09:08:19;;;;;;;7.50;2.47;;;486.40;1945.60;;;;;;4958634;28;20053;-81
2022/05/01 09:10:45;;;;;;;7.78;2.25;;;486.40;1996.80;;;;;;4959547;28;20114;-81
2022/05/01 09:13:11;;;;;;;5.78;2.35;;;486.40;1945.60;;;;;;4959238;28;20497;-81
2022/05/01 09:15:41;;;;;;;12.27;2.80;;;486.40;1971.20;;;;;;4959138;28;20042;-81
2022/05/01 09:18:11;;;;;;;13.48;2.95;;;486.50;2022.40;;;;;;4958922;28;20086;-81
2022/05/01 09:21:05;;;;;;;5.28;2.45;;;486.50;1971.20;;;;;;4958995;28;20034;-78
2022/05/01 09:23:40;;;;;;;9.95;2.42;;;486.50;2022.40;;;;;;4975436;28;20148;-78
2022/05/01 09:26:08;;;;;;;11.90;3.38;;;486.50;1996.80;;;;;;4958795;28;20030;-79
2022/05/01 09:28:35;;;;;;;9.25;2.28;;;486.60;1945.60;;;;;;4958833;28;20050;-79
2022/05/01 09:31:01;;;;;;;5.25;2.33;;;486.60;1894.40;;;;;;4958689;28;20117;-79
2022/05/01 09:33:27;;;;;;;4.43;2.20;;;486.60;1792.00;;;;;;4975581;28;20433;-78
2022/05/01 09:35:53;;;;;;;10.65;2.47;;;486.70;1740.80;;;;;;4958293;28;20034;-79
2022/05/01 09:38:24;;;;;;;6.53;2.40;;;486.70;1792.00;;;;;;4975315;28;20026;-78
2022/05/01 09:41:02;;;;;;;5.22;1.70;;;486.70;1792.00;;;;;;4975223;28;20496;-79
2022/05/01 09:43:47;;;;;;;7.13;2.15;;;486.80;1715.20;;;;;;4973663;28;20026;-79
2022/05/01 09:46:22;;;;;;;7.45;2.30;;;486.80;1740.80;;;;;;4955718;28;20508;-80
2022/05/01 09:49:02;;;;;;;5.60;2.28;;;486.80;1740.80;;;;;;4954310;28;20038;-79
2022/05/01 09:51:34;;;;;;;10.15;2.88;;;486.80;1715.20;;;;;;4953297;28;20015;-78
2022/05/01 09:54:02;;;;;;;8.02;2.53;;;486.90;1689.60;;;;;;4975038;28;20377;-78
2022/05/01 09:56:27;;;;;;;8.55;2.90;;;486.90;1689.60;;;;;;4975455;28;20580;-78
2022/05/01 09:59:00;;;;;;;19.65;2.60;;;487.00;1715.20;;;;;;4956894;28;20046;-78
2022/05/01 10:01:28;;;;;;;5.97;2.40;;;487.00;1664.00;;;;;;4972901;28;20066;-78
2022/05/01 10:03:54;;;;;;;19.10;3.15;;;487.10;1715.20;;;;;;4975000;28;20030;-77
2022/05/01 10:06:21;;;;;;;6.35;2.10;;;487.10;1689.60;;;;;;4975200;28;20503;-78
2022/05/01 10:08:47;;;;;;;6.35;2.08;;;487.20;1664.00;;;;;;4955600;28;20162;-79
2022/05/01 10:11:16;;;;;;;9.80;2.85;;;487.30;1715.20;;;;;;4975095;28;20023;-79
2022/05/01 10:13:46;;;;;;;7.82;2.97;;;487.30;1664.00;;;;;;4975029;28;20433;-78
2022/05/01 10:16:15;;;;;;;8.27;2.70;;;512.00;1638.40;;;;;;4974914;28;20061;-78
2022/05/01 10:18:43;;;;;;;3.97;2.13;;;512.00;1638.40;;;;;;4975112;28;20094;-79
2022/05/01 10:21:09;;;;;;;4.85;2.25;;;512.10;1638.40;;;;;;4974601;28;20082;-78
2022/05/01 10:23:35;;;;;;;10.65;2.80;;;512.20;1638.40;;;;;;4971956;28;20027;-78
2022/05/01 10:26:17;;;;;;;5.68;1.98;;;512.10;1612.80;;;;;;4974704;28;20029;-78
2022/05/01 10:28:55;;;;;;;12.00;3.22;;;512.20;1587.20;;;;;;4973877;28;20077;-78
2022/05/01 10:34:43;;;;;;;4.57;2.30;;;512.30;1561.60;;;;;;4974621;28;20178;-78
2022/05/01 10:37:47;;;;;;;4.57;1.95;;;512.30;1561.60;;;;;;4972566;28;20015;-78
2022/05/01 10:40:13;;;;;;;3.60;2.30;;;512.40;1536.00;;;;;;4955432;28;20031;-78
2022/05/01 10:42:45;;;;;;;10.15;2.70;;;512.40;1510.40;;;;;;4954308;29;20043;-78
2022/05/01 10:45:23;;;;;;;4.40;2.25;;;512.50;1536.00;;;;;;4973001;28;20033;-79
2022/05/01 10:47:54;;;;;;;5.78;2.67;;;512.60;1510.40;;;;;;4957204;28;20023;-79
2022/05/01 10:50:22;;;;;;;6.13;2.05;;;512.70;1510.40;;;;;;4974896;28;20477;-83
2022/05/01 10:53:12;;;;;;;5.43;1.98;;;512.90;1484.80;;;;;;4957629;28;20055;-82
2022/05/01 10:55:44;;;;;;;5.40;1.70;;;537.60;1561.60;;;;;;4957419;28;20031;-79
2022/05/01 10:58:21;;;;;;;6.85;2.10;;;537.70;1536.00;;;;;;4957041;28;20023;-77
2022/05/01 11:00:48;;;;;;;7.47;2.10;;;537.80;1561.60;;;;;;4957261;28;20047;-77
2022/05/01 11:03:30;;;;;;;6.05;1.70;;;537.90;1561.60;;;;;;4974147;28;20480;-78
2022/05/01 11:06:01;;;;;;;5.75;2.08;;;538.00;1510.40;;;;;;4974530;28;20113;-77
2022/05/01 11:08:29;;;;;;;6.75;2.33;;;538.10;1459.20;;;;;;4974277;28;20037;-78
2022/05/01 11:10:58;;;;;;;6.65;1.90;;;538.20;1459.20;;;;;;4957078;28;20389;-78
2022/05/01 11:13:28;;;;;;;6.55;2.10;;;538.20;1484.80;;;;;;4974373;28;20066;-80
2022/05/01 11:15:55;;;;;;;12.38;3.28;;;538.30;1433.60;;;;;;4974235;28;20031;-77
2022/05/01 11:18:39;;;;;;;8.77;3.47;;;538.30;1382.40;;;;;;4972830;28;20065;-78
2022/05/01 11:21:28;;;;;;;11.82;4.10;;;538.30;1459.20;;;;;;4956586;28;20085;-77
2022/05/01 11:23:58;;;;;;;4.30;2.20;;;538.40;1459.20;;;;;;4947503;28;20031;-78
2022/05/01 11:26:24;;;;;;;8.60;2.90;;;538.50;1382.40;;;;;;4956786;28;20026;-78
2022/05/01 11:28:52;;;;;;;8.15;2.42;;;538.50;1382.40;;;;;;4973984;28;20031;-78
2022/05/01 11:31:36;;;;;;;3.17;1.48;;;538.50;1484.80;;;;;;4952249;28;20549;-77
2022/05/01 11:34:21;;;;;;;7.57;2.78;;;563.20;1510.40;;;;;;4971151;28;20081;-79
2022/05/01 11:36:58;;;;;;;2.58;1.52;;;563.20;1484.80;;;;;;4971741;28;20042;-78
2022/05/01 11:39:45;;;;;;;8.07;2.35;;;538.50;1408.00;;;;;;4952897;28;20034;-79
2022/05/01 11:42:26;;;;;;;5.10;2.35;;;563.30;1433.60;;;;;;4972266;28;20027;-79
2022/05/01 11:44:57;;;;;;;3.97;1.77;;;563.30;1459.20;;;;;;4972025;28;20026;-77
2022/05/01 11:47:24;;;;;;;3.25;1.55;;;563.30;1484.80;;;;;;4970724;28;20022;-77
2022/05/01 11:49:50;;;;;;;5.80;2.08;;;563.50;1510.40;;;;;;4954359;28;20039;-76
2022/05/01 11:52:17;;;;;;;4.43;2.42;;;563.40;1459.20;;;;;;4973134;28;20536;-76
2022/05/01 11:54:54;;;;;;;6.78;2.22;;;588.90;1382.40;;;;;;4955316;28;20031;-77
2022/05/01 12:03:00;;;;;;;8.43;2.30;;;563.80;1382.40;;;;;;4970926;28;20043;-75
2022/05/01 12:05:28;;;;;;;7.07;2.15;;;563.90;1433.60;;;;;;4972916;28;20036;-76
2022/05/01 12:07:57;;;;;;;5.43;2.10;;;588.80;1382.40;;;;;;4972758;28;20027;-78
2022/05/01 12:10:23;;;;;;;5.00;2.05;;;564.00;1382.40;;;;;;4973223;28;20079;-78
2022/05/01 12:12:49;;;;;;;3.25;1.73;;;563.80;1382.40;;;;;;4972613;28;20022;-77
2022/05/01 12:15:16;;;;;;;7.90;2.05;;;588.90;1382.40;;;;;;4972817;28;20034;-78
2022/05/01 12:17:42;;;;;;;6.00;1.92;;;589.40;1305.60;;;;;;4972823;28;20082;-78
2022/05/01 12:20:09;;;;;;;5.30;2.03;;;589.70;1331.20;;;;;;4955232;28;20085;-78
2022/05/01 12:22:37;;;;;;;5.60;2.15;;;614.60;1382.40;;;;;;4953067;28;20022;-78
2022/05/01 12:25:11;;;;;;;6.43;2.08;;;614.60;1305.60;;;;;;4973031;28;20050;-78
2022/05/01 12:27:41;;;;;;;4.05;2.03;;;614.60;1280.00;;;;;;4953386;28;20023;-78
2022/05/01 12:30:09;;;;;;;4.93;1.95;;;614.90;1356.80;;;;;;4972784;28;20035;-78
2022/05/01 12:32:36;;;;;;;6.05;1.85;;;614.60;1382.40;;;;;;4954845;28;20035;-77
2022/05/01 12:35:04;;;;;;;7.47;2.28;;;614.50;1459.20;;;;;;4953432;28;20035;-77
2022/05/01 12:37:34;;;;;;;6.72;2.10;;;614.50;1280.00;;;;;;4972906;28;20105;-77
2022/05/01 12:40:14;;;;;;;7.85;2.30;;;614.40;1331.20;;;;;;4972598;28;20477;-78
2022/05/01 12:45:40;;;;;;;4.40;2.30;;;589.60;1382.40;;;;;;4971500;28;20058;-78
2022/05/01 12:48:08;;;;;;;7.40;2.15;;;589.60;1280.00;;;;;;4972534;28;20053;-77
2022/05/01 12:50:37;;;;;;;2.72;1.70;;;614.40;1331.20;;;;;;4972989;28;20027;-78